Time,TemperatureF,DewpointF,PressureIn,WindDirection,WindDirectionDegrees,WindSpeedMPH,WindSpeedGustMPH,Humidity,HourlyPrecipIn,Conditions,Clouds,dailyrainin,SolarRadiationWatts/m^2,SoftwareType,DateUTC
2013-04-07 00:03:00,52.2,46.9,29.70,West,279,11.5,11.5,82,0.00,RA,,0.00,0.0,WeatherDisplay:10.37,2013-04-07 05:03:00,
2013-04-07 00:08:00,52.1,46.4,29.70,WNW,302,28.8,28.8,81,0.00,RA,,0.00,0.0,WeatherDisplay:10.37,2013-04-07 05:08:00,
2013-04-07 00:13:00,52.1,46.8,29.70,WNW,292,4.6,4.6,82,0.00,CLR,,0.00,0.0,WeatherDisplay:10.37,2013-04-07 05:13:00,
2013-04-07 00:18:00,52.0,46.7,29.71,WNW,286,11.5,11.5,82,0.00,CLR,,0.00,0.0,WeatherDisplay:10.37,2013-04-07 05:18:00,
2013-04-07 00:23:00,51.9,46.9,29.72,WNW,288,18.4,18.4,83,0.00,CLR,,0.00,0.0,WeatherDisplay:10.37,2013-04-07 05:23:00,
2013-04-07 00:28:00,51.5,46.2,29.72,West,281,13.8,13.8,82,0.00,CLR,,0.00,0.0,WeatherDisplay:10.37,2013-04-07 05:28:00,
2013-04-07 00:33:00,51.1,45.8,29.72,NW,317,11.5,11.5,82,0.00,CLR,,0.00,0.0,WeatherDisplay:10.37,2013-04-07 05:33:00,
2013-04-07 00:38:00,50.7,45.4,29.72,WNW,299,15.0,15.0,82,0.00,CLR,,0.00,0.0,WeatherDisplay:10.37,2013-04-07 05:38:00,
2013-04-07 00:43:00,50.4,45.1,29.72,WNW,299,16.1,16.1,82,0.00,CLR,,0.00,0.0,WeatherDisplay:10.37,2013-04-07 05:43:00,
2013-04-07 00:48:00,50.1,44.8,29.73,NW,308,13.8,13.8,82,0.00,CLR,,0.00,0.0,WeatherDisplay:10.37,2013-04-07 05:48:00,
2013-04-07 00:53:00,49.9,44.6,29.73,WNW,298,15.0,15.0,82,0.00,CLR,,0.00,0.0,WeatherDisplay:10.37,2013-04-07 05:53:00,
2013-04-07 00:58:00,49.7,44.7,29.73,WNW,288,19.6,19.6,83,0.00,CLR,,0.00,0.0,WeatherDisplay:10.37,2013-04-07 05:58:00,
2013-04-07 01:03:00,49.6,44.6,29.73,WNW,283,15.0,15.0,83,0.00,CLR,,0.00,0.0,WeatherDisplay:10.37,2013-04-07 06:03:00,
2013-04-07 01:08:00,49.6,44.6,29.73,NW,323,10.4,10.4,83,0.00,CLR,,0.00,0.0,WeatherDisplay:10.37,2013-04-07 06:08:00,
2013-04-07 01:13:00,49.5,44.6,29.73,NW,304,12.7,12.7,83,0.00,CLR,,0.00,0.0,WeatherDisplay:10.37,2013-04-07 06:13:00,
2013-04-07 01:18:00,49.4,44.5,29.73,NW,304,11.5,11.5,83,0.00,CLR,,0.00,0.0,WeatherDisplay:10.37,2013-04-07 06:18:00,
2013-04-07 01:23:00,49.3,44.4,29.73,WNW,303,13.8,13.8,83,0.00,CLR,,0.00,0.0,WeatherDisplay:10.37,2013-04-07 06:23:00,
2013-04-07 01:28:00,49.3,44.4,29.73,WNW,290,11.5,11.5,83,0.00,CLR,,0.00,0.0,WeatherDisplay:10.37,2013-04-07 06:28:00,
2013-04-07 01:33:00,49.2,44.3,29.74,WNW,302,13.8,13.8,83,0.00,CLR,,0.00,0.0,WeatherDisplay:10.37,2013-04-07 06:33:00,
2013-04-07 01:38:00,49.1,44.2,29.74,NW,305,19.6,19.6,83,0.00,CLR,,0.00,0.0,WeatherDisplay:10.37,2013-04-07 06:38:00,
2013-04-07 01:43:00,48.8,43.5,29.74,NW,320,19.6,19.6,82,0.00,CLR,,0.00,0.0,WeatherDisplay:10.37,2013-04-07 06:43:00,
2013-04-07 01:48:00,48.7,43.5,29.75,WNW,302,15.0,15.0,82,0.00,CLR,,0.00,0.0,WeatherDisplay:10.37,2013-04-07 06:48:00,
2013-04-07 01:53:00,48.6,43.4,29.75,WNW,297,11.5,11.5,82,0.00,CLR,,0.00,0.0,WeatherDisplay:10.37,2013-04-07 06:53:00,
2013-04-07 01:59:00,48.5,43.3,29.75,WNW,302,6.9,6.9,82,0.00,CLR,,0.00,0.0,WeatherDisplay:10.37,2013-04-07 06:59:00,
2013-04-07 02:04:00,48.5,43.3,29.75,WNW,285,12.7,12.7,82,0.00,CLR,,0.00,0.0,WeatherDisplay:10.37,2013-04-07 07:04:00,
2013-04-07 02:10:00,48.5,43.3,29.75,West,280,8.1,8.1,82,0.00,CLR,,0.00,0.0,WeatherDisplay:10.37,2013-04-07 07:10:00,
2013-04-07 02:15:00,48.4,43.2,29.75,WNW,288,15.0,15.0,82,0.00,CLR,,0.00,0.0,WeatherDisplay:10.37,2013-04-07 07:15:00,
2013-04-07 02:20:00,48.4,43.2,29.76,West,273,13.8,13.8,82,0.00,CLR,,0.00,0.0,WeatherDisplay:10.37,2013-04-07 07:20:00,
2013-04-07 02:25:00,48.3,43.1,29.76,WNW,290,11.5,11.5,82,0.00,CLR,,0.00,0.0,WeatherDisplay:10.37,2013-04-07 07:25:00,
2013-04-07 02:30:00,48.3,43.1,29.76,WNW,302,4.6,4.6,82,0.00,CLR,,0.00,0.0,WeatherDisplay:10.37,2013-04-07 07:30:00,
2013-04-07 02:35:00,48.2,43.0,29.76,WNW,295,12.7,12.7,82,0.00,CLR,,0.00,0.0,WeatherDisplay:10.37,2013-04-07 07:35:00,
2013-04-07 02:40:00,48.1,42.9,29.76,WNW,292,5.8,5.8,82,0.00,CLR,,0.00,0.0,WeatherDisplay:10.37,2013-04-07 07:40:00,
2013-04-07 02:45:00,48.0,42.8,29.76,WNW,286,0.0,0.6,82,0.00,CLR,,0.00,0.0,WeatherDisplay:10.37,2013-04-07 07:45:00,
2013-04-07 02:50:00,47.8,42.6,29.76,WNW,298,11.5,11.5,82,0.00,CLR,,0.00,0.0,WeatherDisplay:10.37,2013-04-07 07:50:00,
2013-04-07 02:55:00,47.8,42.9,29.76,WNW,296,10.4,10.4,83,0.00,CLR,,0.00,0.0,WeatherDisplay:10.37,2013-04-07 07:55:00,
2013-04-07 03:00:00,47.6,42.7,29.77,West,279,12.7,12.7,83,0.00,CLR,,0.00,0.0,WeatherDisplay:10.37,2013-04-07 08:00:00,
2013-04-07 03:06:00,47.5,42.6,29.77,NW,312,6.9,6.9,83,0.00,CLR,,0.00,0.0,WeatherDisplay:10.37,2013-04-07 08:06:00,
2013-04-07 03:11:00,47.4,42.5,29.77,WNW,302,9.2,9.2,83,0.00,CLR,,0.00,0.0,WeatherDisplay:10.37,2013-04-07 08:11:00,
2013-04-07 03:16:00,47.3,42.4,29.77,WNW,290,4.6,4.6,83,0.00,CLR,,0.00,0.0,WeatherDisplay:10.37,2013-04-07 08:16:00,
2013-04-07 03:21:00,47.2,42.3,29.77,WNW,298,11.5,11.5,83,0.00,CLR,,0.00,0.0,WeatherDisplay:10.37,2013-04-07 08:21:00,
2013-04-07 03:26:00,47.2,42.3,29.78,NW,304,6.0,6.0,83,0.00,CLR,,0.00,0.0,WeatherDisplay:10.37,2013-04-07 08:26:00,
2013-04-07 03:31:00,47.2,42.3,29.78,WNW,298,8.1,8.1,83,0.00,CLR,,0.00,0.0,WeatherDisplay:10.37,2013-04-07 08:31:00,
2013-04-07 03:36:00,47.2,42.6,29.78,WNW,284,1.2,1.2,84,0.00,CLR,,0.00,0.0,WeatherDisplay:10.37,2013-04-07 08:36:00,
2013-04-07 03:41:00,47.1,42.5,29.78,West,276,5.0,5.0,84,0.00,CLR,,0.00,0.0,WeatherDisplay:10.37,2013-04-07 08:41:00,
2013-04-07 03:47:00,47.1,42.5,29.78,NW,309,3.5,3.5,84,0.00,CLR,,0.00,0.0,WeatherDisplay:10.37,2013-04-07 08:47:00,
2013-04-07 03:52:00,47.0,42.4,29.78,NW,322,4.6,4.6,84,0.00,CLR,,0.00,0.0,WeatherDisplay:10.37,2013-04-07 08:52:00,
2013-04-07 03:57:00,46.8,41.9,29.78,WNW,292,3.5,3.5,83,0.00,CLR,,0.00,0.0,WeatherDisplay:10.37,2013-04-07 08:57:00,
2013-04-07 04:02:00,46.6,42.0,29.78,WNW,291,3.5,3.5,84,0.00,CLR,,0.00,0.0,WeatherDisplay:10.37,2013-04-07 09:02:00,
2013-04-07 04:07:00,46.5,41.9,29.79,WNW,291,3.5,3.5,84,0.00,CLR,,0.00,0.0,WeatherDisplay:10.37,2013-04-07 09:07:00,
2013-04-07 04:12:00,46.3,41.7,29.79,WNW,292,0.0,0.0,84,0.00,CLR,,0.00,0.0,WeatherDisplay:10.37,2013-04-07 09:12:00,
2013-04-07 04:17:00,46.1,41.5,29.79,WNW,292,3.5,3.5,84,0.00,CLR,,0.00,0.0,WeatherDisplay:10.37,2013-04-07 09:17:00,
2013-04-07 04:22:00,45.9,41.3,29.80,WNW,292,0.0,0.0,84,0.00,CLR,,0.00,0.0,WeatherDisplay:10.37,2013-04-07 09:22:00,
2013-04-07 04:27:00,45.7,41.4,29.81,WNW,292,4.6,4.6,85,0.00,CLR,,0.00,0.0,WeatherDisplay:10.37,2013-04-07 09:27:00,
2013-04-07 04:32:00,45.5,41.3,29.81,WNW,291,0.0,0.0,85,0.00,CLR,,0.00,0.0,WeatherDisplay:10.37,2013-04-07 09:32:00,
2013-04-07 04:37:00,45.2,41.0,29.81,WNW,292,1.2,0.0,85,0.00,CLR,,0.00,0.0,WeatherDisplay:10.37,2013-04-07 09:37:00,
2013-04-07 04:42:00,45.0,40.8,29.82,SW,235,4.6,4.6,85,0.00,CLR,,0.00,0.0,WeatherDisplay:10.37,2013-04-07 09:42:00,
2013-04-07 04:47:00,44.7,40.8,29.82,SW,234,0.0,0.0,86,0.00,CLR,,0.00,0.0,WeatherDisplay:10.37,2013-04-07 09:47:00,
2013-04-07 04:52:00,44.5,40.6,29.82,SW,235,0.0,0.0,86,0.00,CLR,,0.00,0.0,WeatherDisplay:10.37,2013-04-07 09:52:00,
2013-04-07 04:57:00,44.3,40.4,29.82,WSW,237,0.0,0.0,86,0.00,CLR,,0.00,0.0,WeatherDisplay:10.37,2013-04-07 09:57:00,
2013-04-07 05:02:00,44.2,40.3,29.82,WSW,237,3.5,3.5,86,0.00,CLR,,0.00,0.0,WeatherDisplay:10.37,2013-04-07 10:02:00,
2013-04-07 05:07:00,44.0,40.1,29.83,WSW,237,0.0,0.0,86,0.00,CLR,,0.00,0.0,WeatherDisplay:10.37,2013-04-07 10:07:00,
2013-04-07 05:13:00,43.7,39.8,29.83,WSW,237,0.0,0.0,86,0.00,CLR,,0.00,0.0,WeatherDisplay:10.37,2013-04-07 10:13:00,
2013-04-07 05:18:00,43.6,40.0,29.83,WSW,237,1.2,0.0,87,0.00,CLR,,0.00,0.0,WeatherDisplay:10.37,2013-04-07 10:18:00,
2013-04-07 05:23:00,43.4,39.8,29.84,WSW,237,0.0,0.0,87,0.00,CLR,,0.00,0.0,WeatherDisplay:10.37,2013-04-07 10:23:00,
2013-04-07 05:28:00,43.3,39.7,29.84,WSW,237,0.0,0.0,87,0.00,CLR,,0.00,0.0,WeatherDisplay:10.37,2013-04-07 10:28:00,
2013-04-07 05:33:00,43.1,39.5,29.84,WSW,237,0.0,0.0,87,0.00,CLR,,0.00,0.0,WeatherDisplay:10.37,2013-04-07 10:33:00,
2013-04-07 05:38:00,43.0,39.4,29.84,WSW,237,0.0,0.0,87,0.00,CLR,,0.00,0.0,WeatherDisplay:10.37,2013-04-07 10:38:00,
2013-04-07 05:43:00,42.8,39.2,29.84,WSW,237,0.0,0.0,87,0.00,CLR,,0.00,0.0,WeatherDisplay:10.37,2013-04-07 10:43:00,
2013-04-07 05:48:00,42.7,39.4,29.85,WSW,237,0.0,0.0,88,0.00,CLR,,0.00,0.0,WeatherDisplay:10.37,2013-04-07 10:48:00,
2013-04-07 05:53:00,42.6,39.3,29.85,WSW,237,2.3,0.0,88,0.00,CLR,,0.00,0.0,WeatherDisplay:10.37,2013-04-07 10:53:00,
2013-04-07 05:58:00,42.5,39.2,29.85,WSW,237,0.0,0.0,88,0.00,CLR,,0.00,0.0,WeatherDisplay:10.37,2013-04-07 10:58:00,
2013-04-07 06:03:00,42.5,39.2,29.85,West,281,5.8,5.8,88,0.00,CLR,,0.00,0.0,WeatherDisplay:10.37,2013-04-07 11:03:00,
2013-04-07 06:08:00,42.4,39.1,29.86,WNW,282,3.5,0.0,88,0.00,CLR,,0.00,0.0,WeatherDisplay:10.37,2013-04-07 11:08:00,
2013-04-07 06:13:00,42.3,39.0,29.86,West,281,1.2,2.4,88,0.00,CLR,,0.00,0.0,WeatherDisplay:10.37,2013-04-07 11:13:00,
2013-04-07 06:18:00,42.2,38.9,29.86,West,281,6.9,6.9,88,0.00,CLR,,0.00,0.0,WeatherDisplay:10.37,2013-04-07 11:18:00,
2013-04-07 06:23:00,42.1,38.8,29.87,WNW,282,6.9,6.9,88,0.00,CLR,,0.00,0.0,WeatherDisplay:10.37,2013-04-07 11:23:00,
2013-04-07 06:28:00,42.0,38.7,29.87,WNW,282,5.8,5.8,88,0.00,CLR,,0.00,0.0,WeatherDisplay:10.37,2013-04-07 11:28:00,
2013-04-07 06:33:00,42.0,38.7,29.87,WNW,287,6.9,6.9,88,0.00,OVC,,0.00,0.0,WeatherDisplay:10.37,2013-04-07 11:33:00,
2013-04-07 06:39:00,41.9,38.6,29.87,WNW,287,4.6,4.6,88,0.00,SCT,,0.00,5.0,WeatherDisplay:10.37,2013-04-07 11:39:00,
2013-04-07 06:45:00,41.8,38.5,29.88,WNW,286,1.0,0.0,88,0.00,BKN,,0.00,11.0,WeatherDisplay:10.37,2013-04-07 11:45:00,
2013-04-07 06:50:00,41.7,38.4,29.88,WNW,284,3.5,3.5,88,0.00,BKN,,0.00,16.0,WeatherDisplay:10.37,2013-04-07 11:50:00,
2013-04-07 06:55:00,41.6,38.0,29.88,WNW,285,0.0,0.0,87,0.00,BKN,,0.00,25.0,WeatherDisplay:10.37,2013-04-07 11:55:00,
2013-04-07 07:00:00,41.5,37.9,29.88,WNW,285,0.0,0.0,87,0.00,BKN,,0.00,30.0,WeatherDisplay:10.37,2013-04-07 12:00:00,
2013-04-07 07:05:00,41.4,37.8,29.88,WNW,285,0.0,0.0,87,0.00,BKN,,0.00,44.0,WeatherDisplay:10.37,2013-04-07 12:05:00,
2013-04-07 07:10:00,41.4,37.8,29.89,WNW,284,2.3,2.3,87,0.00,BKN,,0.00,60.0,WeatherDisplay:10.37,2013-04-07 12:10:00,
2013-04-07 07:15:00,41.5,37.9,29.89,WNW,294,5.8,5.8,87,0.00,BKN,,0.00,58.0,WeatherDisplay:10.37,2013-04-07 12:15:00,
2013-04-07 07:20:00,41.4,37.8,29.89,WNW,294,6.0,6.0,87,0.00,BKN,,0.00,67.0,WeatherDisplay:10.37,2013-04-07 12:20:00,
2013-04-07 07:25:00,41.5,37.9,29.89,WNW,292,0.0,0.0,87,0.00,BKN,,0.00,81.0,WeatherDisplay:10.37,2013-04-07 12:25:00,
2013-04-07 07:30:00,41.5,37.9,29.89,WNW,299,6.9,6.9,87,0.00,SCT,,0.00,132.0,WeatherDisplay:10.37,2013-04-07 12:30:00,
2013-04-07 07:35:00,41.6,38.0,29.90,NNW,334,3.5,3.5,87,0.00,BKN,,0.00,113.0,WeatherDisplay:10.37,2013-04-07 12:35:00,
2013-04-07 07:40:00,41.6,37.7,29.90,NW,313,4.6,4.6,86,0.00,SCT,,0.00,160.0,WeatherDisplay:10.37,2013-04-07 12:40:00,
2013-04-07 07:45:00,41.7,37.8,29.90,West,280,7.0,7.0,86,0.00,SCT,,0.00,197.0,WeatherDisplay:10.37,2013-04-07 12:45:00,
2013-04-07 07:50:00,41.9,38.0,29.90,WNW,292,3.5,3.5,86,0.00,SCT,,0.00,213.0,WeatherDisplay:10.37,2013-04-07 12:50:00,
2013-04-07 07:55:00,42.1,37.9,29.90,WNW,289,4.6,4.6,85,0.00,FEW,,0.00,227.0,WeatherDisplay:10.37,2013-04-07 12:55:00,
2013-04-07 08:00:00,42.2,38.0,29.91,WNW,290,3.5,3.5,85,0.00,FEW,,0.00,243.0,WeatherDisplay:10.37,2013-04-07 13:00:00,
2013-04-07 08:05:00,42.4,38.2,29.91,WNW,288,3.5,3.5,85,0.00,SCT,,0.00,221.0,WeatherDisplay:10.37,2013-04-07 13:05:00,
2013-04-07 08:10:00,42.7,38.5,29.91,WNW,299,2.3,2.3,85,0.00,SCT,,0.00,153.0,WeatherDisplay:10.37,2013-04-07 13:10:00,
2013-04-07 08:15:00,42.8,38.3,29.91,WNW,302,3.5,3.5,84,0.00,BKN,,0.00,171.0,WeatherDisplay:10.37,2013-04-07 13:15:00,
2013-04-07 08:20:00,43.0,38.5,29.91,WNW,302,0.0,0.0,84,0.00,BKN,,0.00,255.0,WeatherDisplay:10.37,2013-04-07 13:20:00,
2013-04-07 08:25:00,43.3,38.8,29.91,WNW,302,1.0,1.0,84,0.00,BKN,,0.00,211.0,WeatherDisplay:10.37,2013-04-07 13:25:00,
2013-04-07 08:30:00,43.6,39.1,29.91,WNW,294,3.5,3.5,84,0.00,SCT,,0.00,304.0,WeatherDisplay:10.37,2013-04-07 13:30:00,
2013-04-07 08:35:00,43.8,39.0,29.91,WNW,298,5.8,5.8,83,0.00,SCT,,0.00,304.0,WeatherDisplay:10.37,2013-04-07 13:35:00,
2013-04-07 08:41:00,44.0,38.9,29.91,West,276,3.5,0.0,82,0.00,SCT,,0.00,283.0,WeatherDisplay:10.37,2013-04-07 13:41:00,
2013-04-07 08:46:00,44.1,39.0,29.91,NNW,338,8.1,8.1,82,0.00,SCT,,0.00,257.0,WeatherDisplay:10.37,2013-04-07 13:46:00,
2013-04-07 08:51:00,44.3,39.2,29.92,NNW,343,6.9,6.9,82,0.00,SCT,,0.00,218.0,WeatherDisplay:10.37,2013-04-07 13:51:00,
2013-04-07 08:56:00,44.6,39.1,29.92,NNW,342,3.5,3.5,81,0.00,BKN,,0.00,183.0,WeatherDisplay:10.37,2013-04-07 13:56:00,
2013-04-07 09:02:00,45.0,39.5,29.92,WNW,294,0.0,0.0,81,0.00,BKN,,0.00,271.0,WeatherDisplay:10.37,2013-04-07 14:02:00,
2013-04-07 09:07:00,45.1,39.6,29.91,North,360,9.2,9.2,81,0.00,SCT,,0.00,392.0,WeatherDisplay:10.37,2013-04-07 14:07:00,
2013-04-07 09:12:00,45.3,39.5,29.92,North,360,6.0,6.0,80,0.00,SCT,,0.00,244.0,WeatherDisplay:10.37,2013-04-07 14:12:00,
2013-04-07 09:17:00,45.4,39.6,29.92,NNW,331,3.5,3.5,80,0.00,SCT,,0.00,350.0,WeatherDisplay:10.37,2013-04-07 14:17:00,
2013-04-07 09:22:00,45.7,39.9,29.92,NW,322,0.0,0.0,80,0.00,SCT,,0.00,262.0,WeatherDisplay:10.37,2013-04-07 14:22:00,
2013-04-07 09:27:00,46.0,39.9,29.92,NW,313,3.5,3.5,79,0.00,SCT,,0.00,415.0,WeatherDisplay:10.37,2013-04-07 14:27:00,
2013-04-07 09:32:00,46.2,40.0,29.92,NW,324,1.2,1.2,79,0.00,SCT,,0.00,543.0,WeatherDisplay:10.37,2013-04-07 14:32:00,
2013-04-07 09:37:00,46.3,39.8,29.93,North,355,4.6,4.6,78,0.00,SCT,,0.00,550.0,WeatherDisplay:10.37,2013-04-07 14:37:00,
2013-04-07 09:43:00,46.5,40.0,29.93,NNW,346,0.0,0.0,78,0.00,SCT,,0.00,350.0,WeatherDisplay:10.37,2013-04-07 14:43:00,
2013-04-07 09:48:00,46.9,40.4,29.93,NNW,343,8.1,8.1,78,0.00,SCT,,0.00,385.0,WeatherDisplay:10.37,2013-04-07 14:48:00,
2013-04-07 09:54:00,47.2,40.4,29.93,NNW,342,2.3,2.3,77,0.00,SCT,,0.00,598.0,WeatherDisplay:10.37,2013-04-07 14:54:00,
2013-04-07 09:59:00,47.4,40.6,29.94,NNW,346,4.6,4.6,77,0.00,SCT,,0.00,459.0,WeatherDisplay:10.37,2013-04-07 14:59:00,
2013-04-07 10:05:00,47.7,40.8,29.94,NNW,346,0.0,0.0,77,0.00,SCT,,0.00,315.0,WeatherDisplay:10.37,2013-04-07 15:05:00,
2013-04-07 10:10:00,48.1,41.2,29.94,NNE,21,3.5,3.5,77,0.00,SCT,,0.00,316.0,WeatherDisplay:10.37,2013-04-07 15:10:00,
2013-04-07 10:15:00,48.5,41.3,29.94,NNW,343,3.5,3.5,76,0.00,SCT,,0.00,522.0,WeatherDisplay:10.37,2013-04-07 15:15:00,
2013-04-07 10:20:00,48.7,40.8,29.94,NNW,343,4.6,4.6,74,0.00,SCT,,0.00,707.0,WeatherDisplay:10.37,2013-04-07 15:20:00,
2013-04-07 10:25:00,49.0,41.1,29.94,NNW,343,2.3,2.3,74,0.00,CLR,,0.00,719.0,WeatherDisplay:10.37,2013-04-07 15:25:00,
2013-04-07 10:30:00,49.5,41.2,29.94,North,355,4.6,4.6,73,0.00,CLR,,0.00,731.0,WeatherDisplay:10.37,2013-04-07 15:30:00,
2013-04-07 10:35:00,49.7,41.0,29.94,North,5,4.6,4.6,72,0.00,CLR,,0.00,742.0,WeatherDisplay:10.37,2013-04-07 15:35:00,
2013-04-07 10:40:00,50.1,41.4,29.94,North,10,1.2,0.0,72,0.00,CLR,,0.00,765.0,WeatherDisplay:10.37,2013-04-07 15:40:00,
2013-04-07 10:45:00,50.5,41.8,29.94,NNW,342,5.8,5.8,72,0.00,CLR,,0.00,786.0,WeatherDisplay:10.37,2013-04-07 15:45:00,
2013-04-07 10:50:00,50.7,41.3,29.94,NNW,343,1.2,0.0,70,0.00,CLR,,0.00,733.0,WeatherDisplay:10.37,2013-04-07 15:50:00,
2013-04-07 10:56:00,51.2,41.7,29.95,NNW,343,2.3,2.3,70,0.00,CLR,,0.00,754.0,WeatherDisplay:10.37,2013-04-07 15:56:00,
2013-04-07 11:01:00,51.7,42.2,29.94,NNW,344,1.2,0.0,70,0.00,CLR,,0.00,740.0,WeatherDisplay:10.37,2013-04-07 16:01:00,
2013-04-07 11:06:00,52.5,42.6,29.95,NNW,344,2.3,2.3,69,0.00,CLR,,0.00,773.0,WeatherDisplay:10.37,2013-04-07 16:06:00,
2013-04-07 11:11:00,52.9,42.2,29.94,North,350,3.5,3.5,67,0.00,CLR,,0.00,821.0,WeatherDisplay:10.37,2013-04-07 16:11:00,
2013-04-07 11:16:00,53.5,42.8,29.94,North,349,5.8,5.8,67,0.00,CLR,,0.00,840.0,WeatherDisplay:10.37,2013-04-07 16:16:00,
2013-04-07 11:22:00,54.0,42.9,29.94,North,349,0.0,0.0,66,0.00,CLR,,0.00,849.0,WeatherDisplay:10.37,2013-04-07 16:22:00,
2013-04-07 11:27:00,54.3,42.0,29.94,North,350,4.6,4.6,63,0.00,CLR,,0.00,865.0,WeatherDisplay:10.37,2013-04-07 16:27:00,
2013-04-07 11:32:00,54.4,42.5,29.94,North,355,4.6,4.6,64,0.00,CLR,,0.00,882.0,WeatherDisplay:10.37,2013-04-07 16:32:00,
2013-04-07 11:37:00,54.8,43.3,29.94,North,355,4.6,0.0,65,0.00,CLR,,0.00,867.0,WeatherDisplay:10.37,2013-04-07 16:37:00,
2013-04-07 11:42:00,55.1,43.1,29.94,North,355,0.0,1.0,64,0.00,CLR,,0.00,744.0,WeatherDisplay:10.37,2013-04-07 16:42:00,
2013-04-07 11:47:00,55.5,42.7,29.94,North,355,0.0,0.1,62,0.00,CLR,,0.00,868.0,WeatherDisplay:10.37,2013-04-07 16:47:00,
2013-04-07 11:52:00,55.8,43.0,29.94,North,349,2.3,0.0,62,0.00,CLR,,0.00,891.0,WeatherDisplay:10.37,2013-04-07 16:52:00,
2013-04-07 11:58:00,55.9,43.1,29.94,North,349,0.0,0.0,62,0.00,CLR,,0.00,891.0,WeatherDisplay:10.37,2013-04-07 16:58:00,
2013-04-07 12:03:00,56.2,42.9,29.94,NE,41,9.2,9.2,61,0.00,CLR,,0.00,881.0,WeatherDisplay:10.37,2013-04-07 17:03:00,
2013-04-07 12:08:00,56.5,42.8,29.94,NE,41,4.6,4.6,60,0.00,CLR,,0.00,770.0,WeatherDisplay:10.37,2013-04-07 17:08:00,
2013-04-07 12:13:00,56.6,42.9,29.94,NE,41,1.2,0.0,60,0.00,FEW,,0.00,812.0,WeatherDisplay:10.37,2013-04-07 17:13:00,
2013-04-07 12:18:00,56.8,43.1,29.94,NE,41,6.0,6.0,60,0.00,FEW,,0.00,823.0,WeatherDisplay:10.37,2013-04-07 17:18:00,
2013-04-07 12:23:00,56.8,43.1,29.94,NE,41,2.3,0.0,60,0.00,FEW,,0.00,796.0,WeatherDisplay:10.37,2013-04-07 17:23:00,
2013-04-07 12:28:00,57.1,42.5,29.94,NE,41,0.0,0.0,58,0.00,FEW,,0.00,840.0,WeatherDisplay:10.37,2013-04-07 17:28:00,
2013-04-07 12:33:00,57.6,43.8,29.94,NE,41,0.0,0.0,60,0.00,FEW,,0.00,596.0,WeatherDisplay:10.37,2013-04-07 17:33:00,
2013-04-07 12:38:00,58.2,43.0,29.94,NE,41,0.0,0.0,57,0.00,SCT,,0.00,605.0,WeatherDisplay:10.37,2013-04-07 17:38:00,
2013-04-07 12:43:00,58.5,43.8,29.94,NE,41,0.0,0.0,58,0.00,SCT,,0.00,638.0,WeatherDisplay:10.37,2013-04-07 17:43:00,
2013-04-07 12:48:00,59.0,43.8,29.94,NE,41,0.0,0.0,57,0.00,SCT,,0.00,682.0,WeatherDisplay:10.37,2013-04-07 17:48:00,
2013-04-07 12:53:00,59.0,43.3,29.94,NE,40,0.0,0.0,56,0.00,SCT,,0.00,756.0,WeatherDisplay:10.37,2013-04-07 17:53:00,
2013-04-07 12:58:00,59.0,43.8,29.94,NE,40,0.0,0.0,57,0.00,SCT,,0.00,805.0,WeatherDisplay:10.37,2013-04-07 17:58:00,
2013-04-07 13:03:00,59.5,44.2,29.93,NE,45,6.0,6.0,57,0.00,SCT,,0.00,689.0,WeatherDisplay:10.37,2013-04-07 18:03:00,
2013-04-07 13:08:00,59.7,43.5,29.93,NE,49,0.0,0.0,55,0.00,SCT,,0.00,694.0,WeatherDisplay:10.37,2013-04-07 18:08:00,
2013-04-07 13:13:00,60.1,44.8,29.93,NE,49,0.0,0.0,57,0.00,SCT,,0.00,682.0,WeatherDisplay:10.37,2013-04-07 18:13:00,
2013-04-07 13:18:00,60.6,44.8,29.93,ENE,60,4.6,4.6,56,0.00,SCT,,0.00,640.0,WeatherDisplay:10.37,2013-04-07 18:18:00,
2013-04-07 13:23:00,60.5,43.3,29.93,ENE,60,0.0,0.0,53,0.00,SCT,,0.00,745.0,WeatherDisplay:10.37,2013-04-07 18:23:00,
2013-04-07 13:28:00,60.5,43.8,29.93,ENE,60,0.0,0.0,54,0.00,SCT,,0.00,765.0,WeatherDisplay:10.37,2013-04-07 18:28:00,
2013-04-07 13:33:00,61.0,44.2,29.93,ENE,60,0.0,0.0,54,0.00,FEW,,0.00,779.0,WeatherDisplay:10.37,2013-04-07 18:33:00,
2013-04-07 13:38:00,61.6,43.8,29.92,ENE,62,3.5,0.0,52,0.00,FEW,,0.00,666.0,WeatherDisplay:10.37,2013-04-07 18:38:00,
2013-04-07 13:43:00,61.8,44.5,29.92,ENE,63,3.5,3.5,53,0.00,FEW,,0.00,745.0,WeatherDisplay:10.37,2013-04-07 18:43:00,
2013-04-07 13:48:00,62.0,44.7,29.92,ENE,63,0.0,0.0,53,0.00,SCT,,0.00,744.0,WeatherDisplay:10.37,2013-04-07 18:48:00,
2013-04-07 13:53:00,62.3,44.9,29.92,ENE,62,0.0,0.0,53,0.00,FEW,,0.00,758.0,WeatherDisplay:10.37,2013-04-07 18:53:00,
2013-04-07 13:58:00,63.1,45.7,29.92,ENE,63,0.0,0.0,53,0.00,FEW,,0.00,742.0,WeatherDisplay:10.37,2013-04-07 18:58:00,
2013-04-07 14:05:00,63.6,45.6,29.92,ENE,71,0.0,0.0,52,0.00,FEW,,0.00,768.0,WeatherDisplay:10.37,2013-04-07 19:05:00,
2013-04-07 14:10:00,63.6,44.6,29.92,ENE,71,4.6,4.6,50,0.00,FEW,,0.00,700.0,WeatherDisplay:10.37,2013-04-07 19:10:00,
2013-04-07 14:15:00,63.7,44.7,29.91,ENE,78,0.0,0.3,50,0.00,FEW,,0.00,722.0,WeatherDisplay:10.37,2013-04-07 19:15:00,
2013-04-07 14:20:00,63.8,43.7,29.91,ENE,78,0.0,0.0,48,0.00,FEW,,0.00,740.0,WeatherDisplay:10.37,2013-04-07 19:20:00,
2013-04-07 14:25:00,63.6,43.5,29.91,ENE,76,1.2,0.0,48,0.00,FEW,,0.00,735.0,WeatherDisplay:10.37,2013-04-07 19:25:00,
2013-04-07 14:31:00,63.7,44.2,29.90,ENE,77,1.0,1.1,49,0.00,FEW,,0.00,654.0,WeatherDisplay:10.37,2013-04-07 19:31:00,
2013-04-07 14:36:00,62.8,43.9,29.91,ENE,76,3.5,3.5,50,0.00,FEW,,0.00,744.0,WeatherDisplay:10.37,2013-04-07 19:36:00,
2013-04-07 14:41:00,62.9,43.4,29.91,ENE,76,1.2,0.0,49,0.00,FEW,,0.00,737.0,WeatherDisplay:10.37,2013-04-07 19:41:00,
2013-04-07 14:46:00,63.2,44.2,29.91,ENE,76,1.2,0.0,50,0.00,FEW,,0.00,666.0,WeatherDisplay:10.37,2013-04-07 19:46:00,
2013-04-07 14:51:00,63.9,43.8,29.90,ENE,76,0.0,0.0,48,0.00,SCT,,0.00,621.0,WeatherDisplay:10.37,2013-04-07 19:51:00,
2013-04-07 14:56:00,64.3,43.6,29.90,ENE,76,0.0,0.0,47,0.00,SCT,,0.00,645.0,WeatherDisplay:10.37,2013-04-07 19:56:00,
2013-04-07 15:02:00,64.7,44.0,29.90,ENE,76,0.0,0.0,47,0.00,SCT,,0.00,536.0,WeatherDisplay:10.37,2013-04-07 20:02:00,
2013-04-07 15:07:00,64.7,44.0,29.90,ENE,76,0.0,0.0,47,0.00,SCT,,0.00,592.0,WeatherDisplay:10.37,2013-04-07 20:07:00,
2013-04-07 15:13:00,64.9,44.2,29.89,ENE,76,0.0,0.0,47,0.00,SCT,,0.00,489.0,WeatherDisplay:10.37,2013-04-07 20:13:00,
2013-04-07 15:18:00,64.9,43.6,29.89,ENE,76,0.0,0.0,46,0.00,SCT,,0.00,454.0,WeatherDisplay:10.37,2013-04-07 20:18:00,
2013-04-07 15:23:00,64.8,44.6,29.89,ENE,76,0.0,0.0,48,0.00,SCT,,0.00,448.0,WeatherDisplay:10.37,2013-04-07 20:23:00,
2013-04-07 15:28:00,65.0,43.7,29.89,ENE,76,4.6,4.6,46,0.00,SCT,,0.00,439.0,WeatherDisplay:10.37,2013-04-07 20:28:00,
2013-04-07 15:33:00,64.9,44.2,29.89,ENE,76,3.5,0.0,47,0.00,SCT,,0.00,468.0,WeatherDisplay:10.37,2013-04-07 20:33:00,
2013-04-07 15:38:00,64.6,43.9,29.89,ENE,76,0.0,0.0,47,0.00,SCT,,0.00,399.0,WeatherDisplay:10.37,2013-04-07 20:38:00,
2013-04-07 15:43:00,64.7,44.5,29.89,ENE,76,1.2,0.0,48,0.00,BKN,,0.00,355.0,WeatherDisplay:10.37,2013-04-07 20:43:00,
2013-04-07 15:48:00,64.9,44.2,29.89,ENE,76,0.0,0.0,47,0.00,BKN,,0.00,364.0,WeatherDisplay:10.37,2013-04-07 20:48:00,
2013-04-07 15:53:00,65.2,44.5,29.88,ENE,76,0.0,0.0,47,0.00,BKN,,0.00,362.0,WeatherDisplay:10.37,2013-04-07 20:53:00,
2013-04-07 15:58:00,65.3,44.5,29.88,ENE,76,5.8,5.8,47,0.00,BKN,,0.00,394.0,WeatherDisplay:10.37,2013-04-07 20:58:00,
2013-04-07 16:03:00,64.6,43.9,29.88,ENE,74,0.0,0.0,47,0.00,BKN,,0.00,410.0,WeatherDisplay:10.37,2013-04-07 21:03:00,
2013-04-07 16:08:00,64.4,44.3,29.88,ENE,74,0.0,0.0,48,0.00,SCT,,0.00,360.0,WeatherDisplay:10.37,2013-04-07 21:08:00,
2013-04-07 16:13:00,64.7,45.1,29.88,ENE,75,0.0,0.0,49,0.00,SCT,,0.00,367.0,WeatherDisplay:10.37,2013-04-07 21:13:00,
2013-04-07 16:19:00,65.0,44.8,29.88,ENE,75,3.5,3.5,48,0.00,SCT,,0.00,343.0,WeatherDisplay:10.37,2013-04-07 21:19:00,
2013-04-07 16:24:00,65.2,45.0,29.88,ENE,74,3.5,3.5,48,0.00,SCT,,0.00,404.0,WeatherDisplay:10.37,2013-04-07 21:24:00,
2013-04-07 16:29:00,65.6,44.8,29.88,ENE,74,0.0,0.0,47,0.00,SCT,,0.00,436.0,WeatherDisplay:10.37,2013-04-07 21:29:00,
2013-04-07 16:34:00,66.0,45.7,29.88,ENE,75,0.0,0.0,48,0.00,SCT,,0.00,422.0,WeatherDisplay:10.37,2013-04-07 21:34:00,
2013-04-07 16:39:00,66.6,45.7,29.88,East,80,5.8,5.8,47,0.00,SCT,,0.00,489.0,WeatherDisplay:10.37,2013-04-07 21:39:00,
2013-04-07 16:45:00,66.9,44.9,29.88,East,80,3.5,3.5,45,0.00,SCT,,0.00,369.0,WeatherDisplay:10.37,2013-04-07 21:45:00,
2013-04-07 16:50:00,66.8,45.3,29.88,ENE,69,6.9,6.9,46,0.00,SCT,,0.00,192.0,WeatherDisplay:10.37,2013-04-07 21:50:00,
2013-04-07 16:55:00,66.6,45.2,29.88,ENE,74,0.0,0.0,46,0.00,BKN,,0.00,422.0,WeatherDisplay:10.37,2013-04-07 21:55:00,
2013-04-07 17:00:00,66.8,45.9,29.87,East,80,4.6,4.6,47,0.00,SCT,,0.00,390.0,WeatherDisplay:10.37,2013-04-07 22:00:00,
2013-04-07 17:05:00,67.0,46.1,29.87,ENE,78,0.0,1.7,47,0.00,SCT,,0.00,318.0,WeatherDisplay:10.37,2013-04-07 22:05:00,
2013-04-07 17:10:00,66.7,45.3,29.87,East,80,3.5,3.5,46,0.00,SCT,,0.00,174.0,WeatherDisplay:10.37,2013-04-07 22:10:00,
2013-04-07 17:15:00,66.7,45.8,29.87,ENE,78,4.6,4.6,47,0.00,BKN,,0.00,255.0,WeatherDisplay:10.37,2013-04-07 22:15:00,
2013-04-07 17:20:00,66.7,45.8,29.86,East,81,5.8,5.8,47,0.00,BKN,,0.00,271.0,WeatherDisplay:10.37,2013-04-07 22:20:00,
2013-04-07 17:25:00,66.8,45.3,29.86,East,81,3.5,3.5,46,0.00,SCT,,0.00,406.0,WeatherDisplay:10.37,2013-04-07 22:25:00,
2013-04-07 17:30:00,66.9,46.0,29.86,East,87,4.0,4.0,47,0.00,FEW,,0.00,374.0,WeatherDisplay:10.37,2013-04-07 22:30:00,
2013-04-07 17:36:00,67.5,46.0,29.86,East,83,6.9,6.9,46,0.00,FEW,,0.00,343.0,WeatherDisplay:10.37,2013-04-07 22:36:00,
2013-04-07 17:41:00,67.7,45.6,29.86,East,93,0.0,0.0,45,0.00,SCT,,0.00,220.0,WeatherDisplay:10.37,2013-04-07 22:41:00,
2013-04-07 17:46:00,67.4,45.3,29.86,East,93,0.0,0.0,45,0.00,BKN,,0.00,76.0,WeatherDisplay:10.37,2013-04-07 22:46:00,
2013-04-07 17:51:00,67.0,46.1,29.85,ENE,71,4.6,4.6,47,0.00,BKN,,0.00,105.0,WeatherDisplay:10.37,2013-04-07 22:51:00,
2013-04-07 17:56:00,66.7,45.8,29.85,ENE,74,3.5,0.0,47,0.00,BKN,,0.00,285.0,WeatherDisplay:10.37,2013-04-07 22:56:00,
2013-04-07 18:02:00,66.8,45.9,29.85,East,96,4.6,4.6,47,0.00,SCT,,0.00,278.0,WeatherDisplay:10.37,2013-04-07 23:02:00,
2013-04-07 18:07:00,66.9,46.6,29.85,East,90,3.5,3.5,48,0.00,SCT,,0.00,250.0,WeatherDisplay:10.37,2013-04-07 23:07:00,
2013-04-07 18:12:00,67.1,46.2,29.85,East,86,1.2,0.0,47,0.00,SCT,,0.00,214.0,WeatherDisplay:10.37,2013-04-07 23:12:00,
2013-04-07 18:17:00,67.1,45.6,29.85,East,85,0.0,0.0,46,0.00,SCT,,0.00,185.0,WeatherDisplay:10.37,2013-04-07 23:17:00,
2013-04-07 18:22:00,67.1,46.2,29.85,ENE,78,3.5,3.5,47,0.00,SCT,,0.00,162.0,WeatherDisplay:10.37,2013-04-07 23:22:00,
2013-04-07 18:27:00,67.0,46.1,29.85,ENE,72,3.5,3.5,47,0.00,SCT,,0.00,142.0,WeatherDisplay:10.37,2013-04-07 23:27:00,
2013-04-07 18:32:00,67.0,46.1,29.85,East,94,0.0,0.0,47,0.00,SCT,,0.00,125.0,WeatherDisplay:10.37,2013-04-07 23:32:00,
2013-04-07 18:37:00,66.9,46.0,29.85,East,95,0.0,0.0,47,0.00,BKN,,0.00,107.0,WeatherDisplay:10.37,2013-04-07 23:37:00,
2013-04-07 18:42:00,66.8,45.9,29.85,East,90,0.0,0.0,47,0.00,BKN,,0.00,93.0,WeatherDisplay:10.37,2013-04-07 23:42:00,
2013-04-07 18:47:00,66.5,45.6,29.85,ENE,75,0.0,0.0,47,0.00,BKN,,0.00,79.0,WeatherDisplay:10.37,2013-04-07 23:47:00,
2013-04-07 18:52:00,66.2,45.9,29.85,ENE,74,0.0,0.0,48,0.00,BKN,,0.00,63.0,WeatherDisplay:10.37,2013-04-07 23:52:00,
2013-04-07 18:57:00,66.0,46.3,29.85,ENE,76,0.0,0.0,49,0.00,BKN,,0.00,51.0,WeatherDisplay:10.37,2013-04-07 23:57:00,
2013-04-07 19:02:00,65.7,46.0,29.85,East,81,3.5,0.0,49,0.00,BKN,,0.00,40.0,WeatherDisplay:10.37,2013-04-08 00:02:00,
2013-04-07 19:07:00,65.3,45.6,29.85,East,81,0.0,0.0,49,0.00,BKN,,0.00,32.0,WeatherDisplay:10.37,2013-04-08 00:07:00,
2013-04-07 19:12:00,65.0,45.9,29.85,East,80,3.5,3.5,50,0.00,BKN,,0.00,23.0,WeatherDisplay:10.37,2013-04-08 00:12:00,
2013-04-07 19:17:00,64.4,45.9,29.85,East,80,5.8,5.8,51,0.00,BKN,,0.00,16.0,WeatherDisplay:10.37,2013-04-08 00:17:00,
2013-04-07 19:22:00,63.9,45.9,29.85,ENE,72,3.5,3.5,52,0.00,BKN,,0.00,11.0,WeatherDisplay:10.37,2013-04-08 00:22:00,
2013-04-07 19:27:00,63.4,45.5,29.85,ENE,72,0.0,0.2,52,0.00,BKN,,0.00,7.0,WeatherDisplay:10.37,2013-04-08 00:27:00,
2013-04-07 19:32:00,62.9,45.5,29.85,ENE,74,3.5,0.0,53,0.00,SCT,,0.00,5.0,WeatherDisplay:10.37,2013-04-08 00:32:00,
2013-04-07 19:37:00,62.4,45.5,29.84,ENE,74,1.2,0.0,54,0.00,SCT,,0.00,0.0,WeatherDisplay:10.37,2013-04-08 00:37:00,
2013-04-07 19:42:00,62.1,45.2,29.84,ENE,73,2.3,2.3,54,0.00,SCT,,0.00,0.0,WeatherDisplay:10.37,2013-04-08 00:42:00,
2013-04-07 19:47:00,61.7,44.9,29.84,ENE,72,0.0,0.0,54,0.00,SCT,,0.00,0.0,WeatherDisplay:10.37,2013-04-08 00:47:00,
2013-04-07 19:52:00,61.2,44.9,29.85,East,99,0.0,0.0,55,0.00,SCT,,0.00,0.0,WeatherDisplay:10.37,2013-04-08 00:52:00,
2013-04-07 19:58:00,60.8,45.0,29.85,East,99,0.0,0.0,56,0.00,SCT,,0.00,0.0,WeatherDisplay:10.37,2013-04-08 00:58:00,
2013-04-07 20:03:00,60.5,44.7,29.84,East,99,0.0,0.0,56,0.00,SCT,,0.00,0.0,WeatherDisplay:10.37,2013-04-08 01:03:00,
2013-04-07 20:08:00,60.1,44.8,29.85,East,96,1.2,0.0,57,0.00,SCT,,0.00,0.0,WeatherDisplay:10.37,2013-04-08 01:08:00,
2013-04-07 20:13:00,59.8,44.5,29.84,East,96,0.0,0.0,57,0.00,SCT,,0.00,0.0,WeatherDisplay:10.37,2013-04-08 01:13:00,
2013-04-07 20:18:00,59.6,44.8,29.84,East,96,0.0,0.0,58,0.00,SCT,,0.00,0.0,WeatherDisplay:10.37,2013-04-08 01:18:00,
2013-04-07 20:23:00,59.3,44.5,29.84,East,96,0.0,0.0,58,0.00,SCT,,0.00,0.0,WeatherDisplay:10.37,2013-04-08 01:23:00,
2013-04-07 20:28:00,59.0,44.7,29.84,East,95,3.5,3.5,59,0.00,SCT,,0.00,0.0,WeatherDisplay:10.37,2013-04-08 01:28:00,
2013-04-07 20:33:00,58.8,44.5,29.84,East,96,0.0,0.0,59,0.00,SCT,,0.00,0.0,WeatherDisplay:10.37,2013-04-08 01:33:00,
2013-04-07 20:38:00,58.4,44.6,29.84,East,95,0.0,0.0,60,0.00,SCT,,0.00,0.0,WeatherDisplay:10.37,2013-04-08 01:38:00,
2013-04-07 20:43:00,58.1,44.7,29.84,East,95,2.3,0.0,61,0.00,SCT,,0.00,0.0,WeatherDisplay:10.37,2013-04-08 01:43:00,
2013-04-07 20:48:00,57.8,44.4,29.84,East,95,0.0,0.0,61,0.00,SCT,,0.00,0.0,WeatherDisplay:10.37,2013-04-08 01:48:00,
2013-04-07 20:53:00,57.5,44.1,29.84,East,82,1.2,0.0,61,0.00,SCT,,0.00,0.0,WeatherDisplay:10.37,2013-04-08 01:53:00,
2013-04-07 20:58:00,57.3,44.4,29.84,East,82,0.0,0.3,62,0.00,SCT,,0.00,0.0,WeatherDisplay:10.37,2013-04-08 01:58:00,
2013-04-07 21:03:00,57.1,44.2,29.83,East,82,3.5,3.5,62,0.00,SCT,,0.00,0.0,WeatherDisplay:10.37,2013-04-08 02:03:00,
2013-04-07 21:08:00,56.8,44.3,29.84,East,82,0.0,0.0,63,0.00,SCT,,0.00,0.0,WeatherDisplay:10.37,2013-04-08 02:08:00,
2013-04-07 21:13:00,56.7,44.2,29.84,East,82,0.0,0.3,63,0.00,SCT,,0.00,0.0,WeatherDisplay:10.37,2013-04-08 02:13:00,
2013-04-07 21:18:00,56.4,44.4,29.84,East,82,0.0,0.0,64,0.00,SCT,,0.00,0.0,WeatherDisplay:10.37,2013-04-08 02:18:00,
2013-04-07 21:23:00,56.2,44.6,29.84,East,82,0.0,0.7,65,0.00,SCT,,0.00,0.0,WeatherDisplay:10.37,2013-04-08 02:23:00,
2013-04-07 21:29:00,55.9,44.3,29.83,East,80,3.5,3.5,65,0.00,SCT,,0.00,0.0,WeatherDisplay:10.37,2013-04-08 02:29:00,
2013-04-07 21:34:00,55.7,44.5,29.83,East,82,0.0,0.0,66,0.00,SCT,,0.00,0.0,WeatherDisplay:10.37,2013-04-08 02:34:00,
2013-04-07 21:39:00,55.4,44.2,29.83,East,81,4.6,4.6,66,0.00,SCT,,0.00,0.0,WeatherDisplay:10.37,2013-04-08 02:39:00,
2013-04-07 21:44:00,55.1,44.3,29.83,East,101,3.5,3.5,67,0.00,SCT,,0.00,0.0,WeatherDisplay:10.37,2013-04-08 02:44:00,
2013-04-07 21:49:00,54.9,44.5,29.83,East,96,5.8,5.8,68,0.00,SCT,,0.00,0.0,WeatherDisplay:10.37,2013-04-08 02:49:00,
2013-04-07 21:54:00,54.7,44.7,29.83,East,91,4.6,4.6,69,0.00,SCT,,0.00,0.0,WeatherDisplay:10.37,2013-04-08 02:54:00,
2013-04-07 21:59:00,54.5,44.5,29.83,East,80,5.8,5.8,69,0.00,SCT,,0.00,0.0,WeatherDisplay:10.37,2013-04-08 02:59:00,
2013-04-07 22:05:00,54.4,44.4,29.81,ENE,71,6.9,6.9,69,0.00,SCT,,0.00,0.0,WeatherDisplay:10.37,2013-04-08 03:05:00,
2013-04-07 22:10:00,54.4,44.8,29.81,East,101,8.1,8.1,70,0.00,SCT,,0.00,0.0,WeatherDisplay:10.37,2013-04-08 03:10:00,
2013-04-07 22:15:00,54.2,44.6,29.81,East,80,5.0,5.0,70,0.00,SCT,,0.00,0.0,WeatherDisplay:10.37,2013-04-08 03:15:00,
2013-04-07 22:20:00,54.0,44.4,29.81,East,81,6.9,6.9,70,0.00,SCT,,0.00,0.0,WeatherDisplay:10.37,2013-04-08 03:20:00,
2013-04-07 22:25:00,53.9,44.7,29.81,ESE,109,8.1,8.1,71,0.00,SCT,,0.00,0.0,WeatherDisplay:10.37,2013-04-08 03:25:00,
2013-04-07 22:30:00,53.8,44.6,29.81,ENE,75,9.2,9.2,71,0.00,SCT,,0.00,0.0,WeatherDisplay:10.37,2013-04-08 03:30:00,
2013-04-07 22:35:00,53.7,44.5,29.80,East,81,6.9,6.9,71,0.00,SCT,,0.00,0.0,WeatherDisplay:10.37,2013-04-08 03:35:00,
2013-04-07 22:41:00,53.6,44.4,29.80,East,93,6.9,6.9,71,0.00,SCT,,0.00,0.0,WeatherDisplay:10.37,2013-04-08 03:41:00,
2013-04-07 22:46:00,53.5,44.3,29.80,East,85,6.9,6.9,71,0.00,SCT,,0.00,0.0,WeatherDisplay:10.37,2013-04-08 03:46:00,
2013-04-07 22:52:00,53.5,44.7,29.80,ESE,105,6.9,6.9,72,0.00,SCT,,0.00,0.0,WeatherDisplay:10.37,2013-04-08 03:52:00,
2013-04-07 22:57:00,53.4,44.6,29.80,East,80,4.6,4.6,72,0.00,SCT,,0.00,0.0,WeatherDisplay:10.37,2013-04-08 03:57:00,
2013-04-07 23:00:00,53.5,44.7,29.80,East,85,6.9,6.9,72,0.00,SCT,,0.00,0.0,WeatherDisplay:10.37,2013-04-08 04:00:00,
2013-04-07 23:05:00,53.5,44.7,29.80,East,88,6.9,6.9,72,0.00,SCT,,0.00,0.0,WeatherDisplay:10.37,2013-04-08 04:05:00,
2013-04-07 23:10:00,53.5,44.7,29.80,East,81,5.8,5.8,72,0.00,SCT,,0.00,0.0,WeatherDisplay:10.37,2013-04-08 04:10:00,
2013-04-07 23:15:00,53.5,44.7,29.79,East,86,5.8,5.8,72,0.00,SCT,,0.00,0.0,WeatherDisplay:10.37,2013-04-08 04:15:00,
2013-04-07 23:20:00,53.5,44.7,29.79,East,85,3.0,3.0,72,0.00,SCT,,0.00,0.0,WeatherDisplay:10.37,2013-04-08 04:20:00,
2013-04-07 23:25:00,53.4,44.6,29.79,East,83,4.6,4.6,72,0.00,SCT,,0.00,0.0,WeatherDisplay:10.37,2013-04-08 04:25:00,
2013-04-07 23:30:00,53.3,44.5,29.79,East,87,4.6,4.6,72,0.00,SCT,,0.00,0.0,WeatherDisplay:10.37,2013-04-08 04:30:00,
2013-04-07 23:35:00,53.2,44.8,29.79,East,84,3.5,3.5,73,0.00,SCT,,0.00,0.0,WeatherDisplay:10.37,2013-04-08 04:35:00,
2013-04-07 23:40:00,53.2,44.8,29.79,East,92,3.5,3.5,73,0.00,SCT,,0.00,0.0,WeatherDisplay:10.37,2013-04-08 04:40:00,
2013-04-07 23:45:00,53.2,44.4,29.79,East,96,6.9,6.9,72,0.00,SCT,,0.00,0.0,WeatherDisplay:10.37,2013-04-08 04:45:00,
2013-04-07 23:50:00,53.2,44.4,29.79,East,88,6.0,6.0,72,0.00,SCT,,0.00,0.0,WeatherDisplay:10.37,2013-04-08 04:50:00,
2013-04-07 23:55:00,53.3,44.5,29.78,East,84,4.6,4.6,72,0.00,SCT,,0.00,0.0,WeatherDisplay:10.37,2013-04-08 04:55:00,